Springfield Beckley Municipal Airport
KSGH : now visible

Airfield :











YOU CAN JOIN US ON...

 
LOGIN :

Register | Disclaimer

   EN    FR    IT 

 









Legend :    VFR   Marginal VFR   IFR   Intensive IFR   Very Intensive IFR
Visi :
Ceiling :
>= 8 km
>= 3000ft
5 to 8 km
1000 to 3000 ft
1500m to 5 km
500 to 1000 ft
800 to 1500m
200 to 500 ft
< 800m
< 200 ft
Symbols :   Thunderstorms  Fog  Heavy snow  Heavy precipitations  Wind > 20 kt






- Airport Elevation : 1051 ft


KSGH - Springfield Beckley Municipal

CURRENT METAR :
  • 150256Z AUTO 25011KT 7SM OVC012 04/03 A2974 RMK AO2 SLP081 T00390028 53012

EXPIRED METARs :
  • 150226Z AUTO 24012KT 8SM BKN012 OVC037 04/03 A2974 RMK AO2
  • 150203Z AUTO 25010KT 8SM FEW012 OVC039 04/03 A2973 RMK AO2
  • 150156Z AUTO 25012KT 8SM SCT012 BKN025 OVC039 04/03 A2973 RMK AO2 SLP075 T00390028
  • 150135Z AUTO 25011KT 9SM SCT012 OVC025 04/03 A2973 RMK AO2
  • 150056Z AUTO 25011KT 10SM FEW016 BKN029 OVC034 04/03 A2972 RMK AO2 SLP073 T00390028

TAF N/A



MET'MAP, your aeronautical weather chart ! - Copyright ORBIFLY December 2007 - Disclaimer

ORBIFLY MET'MAP TEAM :

Programming & Development : Alexandra Zaïnal
Concept & original design : Baudouin d'Aumeries
Assistance for programming : Marc-Olivier Méhu
Technical & hardware support : Manuel Goepfert

Contact : metmap@orbifly.com




SOURCES & CREDITS :

   NOAA       Earth
Advisory